createdAt,value
2022-11-29T00:01:53.751Z,98574.06
2022-11-29T00:04:21.841Z,98573.75
2022-11-29T00:06:49.886Z,98577.03
2022-11-29T00:09:19.284Z,98572.91
2022-11-29T00:12:04.582Z,98568.25
2022-11-29T00:14:32.616Z,98574.19
2022-11-29T00:17:02.627Z,98541.81
2022-11-29T00:19:32.015Z,98573.75
2022-11-29T00:22:00.764Z,98573.44
2022-11-29T00:24:32.454Z,98572.38
2022-11-29T00:27:01.340Z,98562.97
2022-11-29T00:29:30.734Z,98561.19
2022-11-29T00:31:58.794Z,98539.16
2022-11-29T00:34:26.907Z,98564.88
2022-11-29T00:36:54.982Z,98562.34
2022-11-29T00:39:22.936Z,98554.63
2022-11-29T00:41:52.393Z,98558.09
2022-11-29T00:44:20.857Z,98561.72
2022-11-29T00:46:49.743Z,98565.94
2022-11-29T00:49:18.400Z,98569.41
2022-11-29T00:51:46.501Z,98555.91
2022-11-29T00:54:14.469Z,98571.00
2022-11-29T00:56:42.915Z,98568.59
2022-11-29T00:59:12.303Z,98573.78
2022-11-29T01:01:40.558Z,98563.19
2022-11-29T01:04:08.551Z,98570.25
2022-11-29T01:06:36.687Z,98573.97
2022-11-29T01:09:05.345Z,98542.34
2022-11-29T01:11:33.353Z,98574.50
2022-11-29T01:14:03.700Z,98564.97
2022-11-29T01:16:33.722Z,98576.50
2022-11-29T01:19:02.075Z,98567.75
2022-11-29T01:21:30.685Z,98572.06
2022-11-29T01:23:58.829Z,98566.78
2022-11-29T01:26:28.952Z,98564.22
2022-11-29T01:28:57.951Z,98575.47
2022-11-29T01:31:28.651Z,98567.00
2022-11-29T01:34:00.342Z,98571.31
2022-11-29T01:36:29.028Z,98577.56
2022-11-29T01:38:57.307Z,98578.19
2022-11-29T01:41:26.963Z,98575.56
2022-11-29T01:44:04.166Z,98575.47
2022-11-29T01:46:33.911Z,98574.81
2022-11-29T01:49:11.117Z,98565.84
2022-11-29T01:51:43.275Z,98578.19
2022-11-29T01:54:12.956Z,98571.44
2022-11-29T01:56:41.434Z,98568.91
2022-11-29T01:59:12.532Z,98565.09
2022-11-29T02:01:40.622Z,98567.75
2022-11-29T02:04:10.512Z,98555.16
2022-11-29T02:06:40.313Z,98561.59
2022-11-29T02:09:19.741Z,98547.31
2022-11-29T02:12:05.143Z,98561.81
2022-11-29T02:14:57.861Z,98556.44
2022-11-29T02:17:35.132Z,98560.13
2022-11-29T02:20:32.826Z,98557.34
2022-11-29T02:23:14.613Z,98536.41
2022-11-29T02:26:00.244Z,98553.03
2022-11-29T02:29:06.503Z,98529.97
2022-11-29T02:32:09.232Z,98545.94
2022-11-29T02:34:55.183Z,98539.38
2022-11-29T02:38:00.424Z,98547.97
2022-11-29T02:41:02.138Z,98544.56
2022-11-29T02:43:59.154Z,98540.66
2022-11-29T02:46:47.264Z,98555.16
2022-11-29T02:49:27.460Z,98538.00
2022-11-29T02:52:01.490Z,98547.53
2022-11-29T02:54:37.755Z,98546.56
2022-11-29T02:57:14.506Z,98548.38
2022-11-29T02:59:51.805Z,98537.88
2022-11-29T03:02:28.610Z,98552.25
2022-11-29T03:05:04.395Z,98559.78
2022-11-29T03:07:42.709Z,98547.09
2022-11-29T03:10:23.225Z,98558.94
2022-11-29T03:12:54.884Z,98520.63
2022-11-29T03:15:30.705Z,98554.50
2022-11-29T03:18:10.435Z,98556.91
2022-11-29T03:20:49.740Z,98559.34
2022-11-29T03:23:26.908Z,98567.81
2022-11-29T03:26:00.487Z,98563.25
2022-11-29T03:28:32.577Z,98573.63
2022-11-29T03:31:08.288Z,98540.06
2022-11-29T03:33:41.942Z,98584.63
2022-11-29T03:36:16.538Z,98590.44
2022-11-29T03:38:47.481Z,98577.41
2022-11-29T03:41:22.150Z,98581.09
2022-11-29T03:43:58.581Z,98588.41
2022-11-29T03:46:34.493Z,98556.44
2022-11-29T03:49:05.479Z,98599.94
2022-11-29T03:51:45.683Z,98592.88
2022-11-29T03:54:21.033Z,98594.84
2022-11-29T03:56:49.865Z,98586.22
2022-11-29T03:59:30.782Z,98597.41
2022-11-29T04:02:15.628Z,98593.72
2022-11-29T04:05:12.320Z,98597.31
2022-11-29T04:08:00.475Z,98588.84
2022-11-29T04:10:53.906Z,98599.75
2022-11-29T04:14:07.074Z,98597.72
2022-11-29T04:17:05.209Z,98597.16
2022-11-29T04:20:14.060Z,98593.34
2022-11-29T04:23:19.791Z,98587.59
2022-11-29T04:26:11.009Z,98576.25
2022-11-29T04:29:08.240Z,98588.25
2022-11-29T04:31:46.421Z,98596.88
2022-11-29T04:34:43.195Z,98601.56
2022-11-29T04:37:39.446Z,98591.34
2022-11-29T04:40:28.939Z,98591.44
2022-11-29T04:43:21.360Z,98612.34
2022-11-29T04:46:16.162Z,98612.78
2022-11-29T04:49:07.395Z,98614.53
2022-11-29T04:51:49.784Z,98616.94
2022-11-29T04:54:25.990Z,98608.94
2022-11-29T04:57:00.365Z,98612.94
2022-11-29T04:59:40.451Z,98616.50
2022-11-29T05:02:17.571Z,98607.19
2022-11-29T05:04:54.338Z,98615.41
2022-11-29T05:07:30.895Z,98612.88
2022-11-29T05:10:07.363Z,98620.28
2022-11-29T05:12:45.373Z,98634.09
2022-11-29T05:15:39.818Z,98595.38
2022-11-29T05:18:17.796Z,98638.84
2022-11-29T05:20:54.212Z,98625.25
2022-11-29T05:23:35.454Z,98641.50
2022-11-29T05:26:10.625Z,98639.59
2022-11-29T05:28:51.539Z,98636.56
2022-11-29T05:31:39.750Z,98636.75
2022-11-29T05:34:31.703Z,98638.31
2022-11-29T05:37:14.365Z,98609.84
2022-11-29T05:39:59.032Z,98644.13
2022-11-29T05:43:03.602Z,98640.53
2022-11-29T05:45:37.453Z,98633.75
2022-11-29T05:48:11.346Z,98647.88
2022-11-29T05:50:43.169Z,98636.59
2022-11-29T05:53:22.716Z,98650.16
2022-11-29T05:56:03.311Z,98622.94
2022-11-29T05:58:49.071Z,98627.84
2022-11-29T06:01:23.659Z,98622.84
2022-11-29T06:04:01.345Z,98645.63
2022-11-29T06:06:42.197Z,98622.44
2022-11-29T06:09:19.643Z,98657.59
2022-11-29T06:11:51.946Z,98617.44
2022-11-29T06:14:36.799Z,98616.25
2022-11-29T06:17:26.499Z,98652.63
2022-11-29T06:20:09.126Z,98655.63
2022-11-29T06:23:13.696Z,98652.63
2022-11-29T06:26:00.658Z,98664.50
2022-11-29T06:28:45.913Z,98662.63
2022-11-29T06:31:20.396Z,98672.78
2022-11-29T06:33:57.511Z,98657.50
2022-11-29T06:36:32.327Z,98663.81
2022-11-29T06:39:00.660Z,98676.72
2022-11-29T06:41:29.183Z,98632.63
2022-11-29T06:43:57.859Z,98679.94
2022-11-29T06:46:42.387Z,98686.72
2022-11-29T06:49:14.243Z,98677.75
2022-11-29T06:51:53.153Z,98675.28
2022-11-29T06:54:35.940Z,98664.09
2022-11-29T06:57:12.131Z,98678.97
2022-11-29T06:59:52.775Z,98688.75
2022-11-29T07:02:55.419Z,98695.94
2022-11-29T07:05:26.762Z,98693.47
2022-11-29T07:07:58.251Z,98685.31
2022-11-29T07:10:28.815Z,98693.78
2022-11-29T07:12:57.412Z,98679.56
2022-11-29T07:15:26.276Z,98708.72
2022-11-29T07:18:13.334Z,98706.44
2022-11-29T07:20:50.755Z,98709.47
2022-11-29T07:23:30.358Z,98708.16
2022-11-29T07:26:10.335Z,98693.25
2022-11-29T07:28:48.626Z,98715.72
2022-11-29T07:31:26.361Z,98698.38
2022-11-29T07:34:07.813Z,98717.34
2022-11-29T07:36:42.307Z,98707.06
2022-11-29T07:39:25.242Z,98691.50
2022-11-29T07:42:04.065Z,98715.13
2022-11-29T07:44:38.533Z,98725.69
2022-11-29T07:47:06.585Z,98722.63
2022-11-29T07:49:34.598Z,98721.31
2022-11-29T07:52:02.675Z,98723.09
2022-11-29T07:54:32.573Z,98708.69
2022-11-29T07:57:00.650Z,98719.16
2022-11-29T07:59:28.625Z,98730.63
2022-11-29T08:01:56.912Z,98734.31
2022-11-29T08:04:25.085Z,98734.31
2022-11-29T08:06:53.387Z,98736.09
2022-11-29T08:09:21.721Z,98648.69
2022-11-29T08:11:54.341Z,98650.50
2022-11-29T08:14:22.602Z,98681.44
2022-11-29T08:25:22.029Z,98687.28
2022-11-29T08:27:56.218Z,98697.06
2022-11-29T08:30:25.014Z,98740.00
2022-11-29T08:32:53.945Z,98750.66
2022-11-29T08:35:24.229Z,98765.38
2022-11-29T08:37:52.592Z,98766.97
2022-11-29T08:40:20.709Z,98738.56
2022-11-29T08:42:48.727Z,98765.16
2022-11-29T08:45:18.222Z,98734.41
2022-11-29T08:47:46.279Z,98769.19
2022-11-29T08:50:16.002Z,98768.91
2022-11-29T08:53:03.261Z,98767.00
2022-11-29T08:55:34.204Z,98772.28
2022-11-29T08:58:04.585Z,98767.41
2022-11-29T09:00:35.308Z,98751.81
2022-11-29T09:03:18.326Z,98766.34
2022-11-29T09:05:46.378Z,98773.56
2022-11-29T09:08:14.973Z,98771.63
2022-11-29T09:10:43.331Z,98775.91
2022-11-29T09:13:12.341Z,98750.16
2022-11-29T09:15:43.677Z,98777.28
2022-11-29T09:18:11.845Z,98785.28
2022-11-29T09:20:42.863Z,98775.16
2022-11-29T09:23:11.814Z,98756.53
2022-11-29T09:25:39.852Z,98776.81
2022-11-29T09:28:09.465Z,98779.22
2022-11-29T09:30:43.243Z,98784.56
2022-11-29T09:33:15.155Z,98796.66
2022-11-29T09:35:43.732Z,98763.81
2022-11-29T09:38:13.675Z,98714.28
2022-11-29T09:40:48.174Z,98769.09
2022-11-29T09:43:26.036Z,98769.09
2022-11-29T09:46:01.797Z,98801.53
2022-11-29T09:49:13.549Z,98784.06
2022-11-29T09:51:55.214Z,98746.03
2022-11-29T09:54:37.193Z,98723.81
2022-11-29T09:57:10.812Z,98760.22
2022-11-29T09:59:43.466Z,98815.69
2022-11-29T10:02:21.712Z,98807.22
2022-11-29T10:04:55.610Z,98711.81
2022-11-29T10:07:28.554Z,98756.44
2022-11-29T10:10:03.847Z,98795.22
2022-11-29T10:12:38.116Z,98776.13
2022-11-29T10:15:13.939Z,98809.75
2022-11-29T10:17:48.742Z,98735.69
2022-11-29T10:20:21.001Z,98763.03
2022-11-29T10:22:55.454Z,98735.22
2022-11-29T10:25:27.016Z,98805.19
2022-11-29T10:27:55.651Z,98802.66
2022-11-29T10:30:23.872Z,98796.41
2022-11-29T10:32:57.488Z,98805.09
2022-11-29T10:35:26.954Z,98804.34
2022-11-29T10:38:29.059Z,98797.94
2022-11-29T10:40:50.020Z,98798.88
2022-11-29T10:43:18.259Z,98801.31
2022-11-29T10:45:53.472Z,98806.63
2022-11-29T10:48:23.344Z,98807.91
2022-11-29T10:50:54.188Z,98800.50
2022-11-29T10:53:26.419Z,98802.41
2022-11-29T10:56:00.214Z,98794.94
2022-11-29T10:58:29.078Z,98799.94
2022-11-29T11:00:59.035Z,98802.28
2022-11-29T11:03:32.337Z,98801.53
2022-11-29T11:06:05.808Z,98774.31
2022-11-29T11:08:35.188Z,98796.03
2022-11-29T11:11:04.986Z,98795.28
2022-11-29T11:13:33.883Z,98795.06
2022-11-29T11:16:11.475Z,98794.00
2022-11-29T11:18:40.023Z,98801.53
2022-11-29T11:21:13.020Z,98785.44
2022-11-29T11:23:52.136Z,98769.75
2022-11-29T11:26:21.975Z,98795.06
2022-11-29T11:28:53.623Z,98774.31
2022-11-29T11:31:30.885Z,98794.25
2022-11-29T11:34:18.996Z,98788.19
2022-11-29T11:36:48.467Z,98761.91
2022-11-29T11:39:21.378Z,98774.97
2022-11-29T11:42:08.363Z,98784.91
2022-11-29T11:44:48.744Z,98792.75
2022-11-29T11:47:19.900Z,98777.28
2022-11-29T11:49:50.436Z,98799.84
2022-11-29T11:52:23.258Z,98790.94
2022-11-29T11:54:55.658Z,98797.94
2022-11-29T11:57:25.109Z,98783.75
2022-11-29T11:59:55.694Z,98793.44
2022-11-29T12:02:29.375Z,98790.19
2022-11-29T12:05:02.000Z,98768.16
2022-11-29T12:08:06.368Z,98803.31
2022-11-29T12:13:26.694Z,98808.84
2022-11-29T12:15:56.320Z,98799.84
2022-11-29T12:18:32.003Z,98811.59
2022-11-29T12:21:04.691Z,98800.47
2022-11-29T12:23:41.051Z,98728.00
2022-11-29T12:26:41.250Z,98815.53
2022-11-29T12:29:04.822Z,98806.31
2022-11-29T12:31:45.250Z,98810.47
2022-11-29T12:34:27.993Z,98815.00
2022-11-29T12:37:03.347Z,98817.09
2022-11-29T12:39:52.433Z,98816.78
2022-11-29T12:42:33.394Z,98796.53
2022-11-29T12:45:15.764Z,98812.75
2022-11-29T12:47:53.696Z,98819.56
2022-11-29T12:50:33.785Z,98812.22
2022-11-29T12:53:21.209Z,98821.88
2022-11-29T12:56:01.747Z,98802.47
2022-11-29T12:58:41.344Z,98806.16
2022-11-29T13:01:24.693Z,98817.19
2022-11-29T13:04:03.919Z,98831.09
2022-11-29T13:06:42.950Z,98830.44
2022-11-29T13:09:40.648Z,98833.78
2022-11-29T13:12:17.109Z,98831.22
2022-11-29T13:14:51.774Z,98832.50
2022-11-29T13:17:31.906Z,98801.50
2022-11-29T13:20:05.607Z,98817.22
2022-11-29T13:22:41.485Z,98829.09
2022-11-29T13:25:18.541Z,98839.94
2022-11-29T13:27:52.810Z,98837.19
2022-11-29T13:30:21.118Z,98832.28
2022-11-29T13:32:55.206Z,98836.69
2022-11-29T13:35:31.346Z,98840.44
2022-11-29T13:38:04.820Z,98836.41
2022-11-29T13:40:38.696Z,98834.69
2022-11-29T13:43:13.254Z,98843.47
2022-11-29T13:45:43.783Z,98841.94
2022-11-29T13:48:48.192Z,98851.97
2022-11-29T13:51:31.883Z,98845.19
2022-11-29T13:54:03.230Z,98840.66
2022-11-29T13:56:36.956Z,98844.94
2022-11-29T13:59:17.617Z,98830.59
2022-11-29T14:01:48.731Z,98845.91
2022-11-29T14:04:26.939Z,98851.53
2022-11-29T14:07:11.644Z,98854.38
2022-11-29T14:09:58.788Z,98848.16
2022-11-29T14:12:38.358Z,98857.31
2022-11-29T14:15:28.299Z,98854.69
2022-11-29T14:17:58.328Z,98857.13
2022-11-29T14:20:55.478Z,98855.81
2022-11-29T14:23:38.238Z,98866.22
2022-11-29T14:26:28.495Z,98841.41
2022-11-29T14:28:57.675Z,98857.69
2022-11-29T14:31:50.920Z,98863.38
2022-11-29T14:34:36.103Z,98838.75
2022-11-29T14:37:17.048Z,98854.03
2022-11-29T14:39:48.151Z,98803.84
2022-11-29T14:42:19.391Z,98866.97
2022-11-29T14:44:52.185Z,98838.38
2022-11-29T14:47:29.859Z,98861.78
2022-11-29T14:50:00.135Z,98864.63
2022-11-29T14:52:30.930Z,98862.91
2022-11-29T14:55:03.053Z,98879.53
2022-11-29T14:58:07.549Z,98877.13
2022-11-29T15:00:53.920Z,98874.19
2022-11-29T15:03:30.081Z,98878.00
2022-11-29T15:06:00.591Z,98882.16
2022-11-29T15:08:35.707Z,98875.00
2022-11-29T15:11:12.563Z,98882.84
2022-11-29T15:13:52.228Z,98870.34
2022-11-29T15:16:37.628Z,98874.78
2022-11-29T15:19:52.999Z,98877.56
2022-11-29T15:22:26.593Z,98882.38
2022-11-29T15:24:56.686Z,98883.41
2022-11-29T15:27:25.336Z,98890.47
2022-11-29T15:29:53.350Z,98886.16
2022-11-29T15:32:26.329Z,98882.94
2022-11-29T15:34:56.269Z,98890.00
2022-11-29T15:37:42.784Z,98876.34
2022-11-29T15:40:14.346Z,98893.53
2022-11-29T15:42:45.310Z,98893.59
2022-11-29T15:45:31.435Z,98896.34
2022-11-29T15:48:16.828Z,98901.16
2022-11-29T15:50:50.561Z,98891.53
2022-11-29T15:53:24.320Z,98888.59
2022-11-29T15:55:55.848Z,98900.28
2022-11-29T15:58:26.032Z,98890.00
2022-11-29T16:00:54.730Z,98899.28
2022-11-29T16:03:27.177Z,98869.44
2022-11-29T16:06:03.634Z,98897.84
2022-11-29T16:08:38.934Z,98876.03
2022-11-29T16:11:07.984Z,98904.09
2022-11-29T16:13:38.791Z,98907.78
2022-11-29T16:16:16.020Z,98897.94
2022-11-29T16:18:46.387Z,98910.69
2022-11-29T16:21:26.469Z,98904.56
2022-11-29T16:23:56.603Z,98917.03
2022-11-29T16:26:28.616Z,98904.75
2022-11-29T16:28:58.120Z,98891.44
2022-11-29T16:31:32.916Z,98913.13
2022-11-29T16:34:08.603Z,98911.81
2022-11-29T16:36:37.068Z,98916.91
2022-11-29T16:39:16.638Z,98910.88
2022-11-29T16:41:44.789Z,98917.69
2022-11-29T16:44:55.146Z,98926.44
2022-11-29T16:47:25.432Z,98919.00
2022-11-29T16:50:13.753Z,98926.09
2022-11-29T16:52:42.334Z,98925.72
2022-11-29T16:55:11.868Z,98930.13
2022-11-29T16:57:40.862Z,98928.53
2022-11-29T17:00:24.668Z,98930.34
2022-11-29T17:02:52.830Z,98922.28
2022-11-29T17:05:21.032Z,98927.28
2022-11-29T17:07:49.615Z,98918.53
2022-11-29T17:10:23.636Z,98925.13
2022-11-29T17:12:51.881Z,98933.06
2022-11-29T17:15:20.049Z,98927.13
2022-11-29T17:17:49.304Z,98934.09
2022-11-29T17:20:17.531Z,98932.59
2022-11-29T17:22:45.716Z,98930.91
2022-11-29T17:25:13.880Z,98927.84
2022-11-29T17:27:43.485Z,98933.75
2022-11-29T17:30:12.576Z,98934.78
2022-11-29T17:32:40.764Z,98915.13
2022-11-29T17:35:09.271Z,98925.91
2022-11-29T17:37:37.418Z,98925.69
2022-11-29T17:40:06.007Z,98911.84
2022-11-29T17:42:34.283Z,98935.63
2022-11-29T17:45:04.312Z,98936.75
2022-11-29T17:47:33.800Z,98931.75
2022-11-29T17:50:01.983Z,98940.34
2022-11-29T17:52:30.060Z,98934.66
2022-11-29T17:54:58.046Z,98936.56
2022-11-29T17:57:26.171Z,98948.56
2022-11-29T17:59:54.234Z,98943.34
2022-11-29T18:02:23.884Z,98938.44
2022-11-29T18:04:51.973Z,98938.81
2022-11-29T18:07:20.094Z,98951.38
2022-11-29T18:09:49.061Z,98954.97
2022-11-29T18:12:17.222Z,98946.56
2022-11-29T18:14:45.263Z,98957.03
2022-11-29T18:17:13.405Z,98950.81
2022-11-29T18:19:43.260Z,98951.84
2022-11-29T18:22:11.413Z,98949.47
2022-11-29T18:24:43.487Z,98893.28
2022-11-29T18:27:11.517Z,98922.84
2022-11-29T18:29:39.540Z,98963.94
2022-11-29T18:32:07.573Z,98959.97
2022-11-29T18:34:35.562Z,98954.84
2022-11-29T18:37:05.004Z,98934.72
2022-11-29T18:39:32.994Z,98944.84
2022-11-29T18:42:01.021Z,98947.69
2022-11-29T18:44:30.391Z,98923.97
2022-11-29T18:46:58.886Z,98960.53
2022-11-29T18:49:27.039Z,98958.81
2022-11-29T18:51:55.062Z,98949.19
2022-11-29T18:54:24.498Z,98946.88
2022-11-29T18:56:52.880Z,98968.88
2022-11-29T18:59:22.115Z,98975.69
2022-11-29T19:01:50.564Z,98965.13
2022-11-29T19:04:20.977Z,98966.44
2022-11-29T19:06:48.990Z,98968.03
2022-11-29T19:09:19.268Z,98974.00
2022-11-29T19:11:49.894Z,98980.13
2022-11-29T19:14:18.087Z,98958.88
2022-11-29T19:16:48.169Z,98938.97
2022-11-29T19:19:18.678Z,98909.41
2022-11-29T19:21:46.761Z,98925.63
2022-11-29T19:24:17.919Z,98973.91
2022-11-29T19:26:48.954Z,98975.94
2022-11-29T19:29:17.711Z,98977.50
2022-11-29T19:31:45.831Z,98974.09
2022-11-29T19:34:13.852Z,98965.00
2022-11-29T19:36:44.408Z,98980.16
2022-11-29T19:39:14.421Z,98972.78
2022-11-29T19:41:43.801Z,98988.91
2022-11-29T19:44:13.511Z,98977.41
2022-11-29T19:46:43.800Z,98984.91
2022-11-29T19:49:11.965Z,98976.03
2022-11-29T19:51:40.188Z,98974.22
2022-11-29T19:54:09.447Z,98989.22
2022-11-29T19:56:38.276Z,98975.00
2022-11-29T19:59:07.966Z,98980.66
2022-11-29T20:01:42.783Z,98989.72
2022-11-29T20:04:13.002Z,98989.25
2022-11-29T20:06:41.483Z,98978.50
2022-11-29T20:09:09.663Z,98993.63
2022-11-29T20:11:37.776Z,98996.47
2022-11-29T20:14:06.983Z,98998.13
2022-11-29T20:16:35.194Z,98997.88
2022-11-29T20:19:08.579Z,98935.53
2022-11-29T20:21:38.161Z,98980.75
2022-11-29T20:24:08.268Z,98980.13
2022-11-29T20:26:39.019Z,98989.53
2022-11-29T20:29:09.522Z,98990.41
2022-11-29T20:31:43.052Z,98984.78
2022-11-29T20:34:16.045Z,98988.97
2022-11-29T20:36:58.564Z,98978.00
2022-11-29T20:39:38.958Z,98979.88
2022-11-29T20:42:34.127Z,98996.13
2022-11-29T20:45:04.839Z,98990.25
2022-11-29T20:47:41.852Z,98999.78
2022-11-29T20:50:17.651Z,98969.75
2022-11-29T20:52:53.291Z,98982.28
2022-11-29T20:55:21.350Z,99004.31
2022-11-29T20:57:50.024Z,99005.25
2022-11-29T21:00:18.756Z,99001.28
2022-11-29T21:02:46.857Z,98989.41
2022-11-29T21:05:16.887Z,98960.09
2022-11-29T21:07:45.867Z,99000.56
2022-11-29T21:10:15.004Z,98998.19
2022-11-29T21:12:45.669Z,99004.50
2022-11-29T21:15:14.938Z,98983.72
2022-11-29T21:17:44.431Z,98987.34
2022-11-29T21:20:19.545Z,99008.38
2022-11-29T21:22:55.116Z,99014.22
2022-11-29T21:25:34.383Z,99007.75
2022-11-29T21:28:03.697Z,99004.84
2022-11-29T21:30:32.098Z,98949.81
2022-11-29T21:33:00.630Z,99001.78
2022-11-29T21:35:30.015Z,98995.81
2022-11-29T21:38:01.875Z,99001.66
2022-11-29T21:40:29.919Z,98993.84
2022-11-29T21:42:57.962Z,99011.41
2022-11-29T21:45:26.246Z,99005.91
2022-11-29T21:47:54.262Z,99008.19
2022-11-29T21:50:22.447Z,98989.00
2022-11-29T21:52:56.085Z,98983.44
2022-11-29T21:55:31.564Z,98995.53
2022-11-29T21:58:00.190Z,98996.56
2022-11-29T22:00:30.956Z,99004.22
2022-11-29T22:03:02.561Z,99006.03
2022-11-29T22:05:30.858Z,99003.09
2022-11-29T22:08:01.740Z,98989.94
2022-11-29T22:10:32.758Z,99011.66
2022-11-29T22:13:03.008Z,99010.25
2022-11-29T22:19:07.824Z,98915.84
2022-11-29T22:30:40.675Z,98941.03
2022-11-29T22:33:13.265Z,98949.63
2022-11-29T22:35:44.317Z,98960.03
2022-11-29T22:38:12.410Z,98996.28
2022-11-29T22:40:40.653Z,98979.50
2022-11-29T22:43:08.728Z,98951.91
2022-11-29T22:45:36.688Z,99005.03
2022-11-29T22:48:06.425Z,99001.38
2022-11-29T22:50:34.401Z,99007.13
2022-11-29T22:53:02.498Z,99002.22
2022-11-29T22:55:30.513Z,99019.66
2022-11-29T22:57:58.562Z,99013.66
2022-11-29T23:00:26.579Z,99019.50
2022-11-29T23:02:58.026Z,99010.91
2022-11-29T23:05:32.136Z,99010.81
2022-11-29T23:08:00.708Z,99004.00
2022-11-29T23:10:28.729Z,99004.41
2022-11-29T23:12:56.723Z,99011.66
2022-11-29T23:15:24.777Z,99008.53
2022-11-29T23:17:53.535Z,99011.09
2022-11-29T23:20:21.536Z,98988.03
2022-11-29T23:22:50.935Z,99008.38
2022-11-29T23:25:19.082Z,99010.91
2022-11-29T23:27:47.098Z,99012.16
2022-11-29T23:30:15.713Z,99012.25
2022-11-29T23:32:43.766Z,99006.47
2022-11-29T23:35:11.748Z,98966.78
2022-11-29T23:37:39.777Z,99014.13
2022-11-29T23:40:10.914Z,99014.56
2022-11-29T23:42:42.361Z,99012.19
2022-11-29T23:45:12.186Z,99014.75
2022-11-29T23:47:40.285Z,98996.34
2022-11-29T23:50:11.718Z,99008.00
2022-11-29T23:52:39.746Z,99010.06
2022-11-29T23:55:10.453Z,99004.69
2022-11-29T23:57:38.516Z,99007.22
